AMQ6281 LGKO-EPKT
Flight info
| Callsign | AMQ6281 |
|---|---|
| Flight time | 2h 15m |
| Altitude | 36000 |
| Route | LARKI UL609 MES DCT ATFIR N133 USALI DCT LOMOS DCT BUDOP DCT PITOK DCT REDSI DCT MEBAN |
| Aircraft | A320/M-SDE3FGHIRWY/LB1 |
Departure
| Time | 2026-05-04 17:57 |
|---|---|
| Airport | Kos International Airport "Ippokratis" (LGKO) |
Arrival
| Time | 2026-05-04 20:12 |
|---|---|
| Airport | Katowice Wojciech Korfanty International Airport (EPKT) |
| Time | Latitude | Longitude | Altitude | Speed | Heading |
|---|---|---|---|---|---|
| 2026-05-04 17:46 | 36.79971 | 27.09054 | 445 ft | 0 kts | 57° |
| 2026-05-04 17:48 | 36.79965 | 27.09042 | 436 ft | 2 kts | 57° |
| 2026-05-04 17:49 | 36.79956 | 27.09024 | 428 ft | 2 kts | 57° |
| 2026-05-04 17:49 | 36.79947 | 27.09007 | 429 ft | 2 kts | 79° |
| 2026-05-04 17:49 | 36.79947 | 27.08987 | 430 ft | 2 kts | 114° |
| 2026-05-04 17:49 | 36.79955 | 27.08969 | 434 ft | 2 kts | 136° |
| 2026-05-04 17:50 | 36.79962 | 27.08961 | 428 ft | 1 kts | 147° |
| 2026-05-04 17:51 | 36.79950 | 27.08970 | 433 ft | 8 kts | 149° |
| 2026-05-04 17:51 | 36.79885 | 27.08984 | 437 ft | 9 kts | 178° |
| 2026-05-04 17:52 | 36.79822 | 27.08987 | 436 ft | 9 kts | 179° |
| 2026-05-04 17:52 | 36.79760 | 27.08989 | 440 ft | 9 kts | 178° |
| 2026-05-04 17:52 | 36.79697 | 27.08992 | 427 ft | 9 kts | 177° |
| 2026-05-04 17:52 | 36.79613 | 27.09003 | 430 ft | 15 kts | 162° |
| 2026-05-04 17:53 | 36.79526 | 27.09065 | 433 ft | 14 kts | 148° |
| 2026-05-04 17:53 | 36.79451 | 27.09123 | 441 ft | 12 kts | 148° |
| 2026-05-04 17:53 | 36.79387 | 27.09172 | 435 ft | 10 kts | 148° |
| 2026-05-04 17:53 | 36.79283 | 27.09252 | 429 ft | 26 kts | 148° |
| 2026-05-04 17:54 | 36.79132 | 27.09369 | 440 ft | 24 kts | 148° |
| 2026-05-04 17:54 | 36.78993 | 27.09476 | 429 ft | 23 kts | 148° |
| 2026-05-04 17:54 | 36.78868 | 27.09573 | 441 ft | 20 kts | 147° |
| 2026-05-04 17:54 | 36.78759 | 27.09659 | 437 ft | 17 kts | 147° |
| 2026-05-04 17:55 | 36.78664 | 27.09733 | 444 ft | 15 kts | 148° |
| 2026-05-04 17:55 | 36.78603 | 27.09809 | 437 ft | 12 kts | 101° |
| 2026-05-04 17:55 | 36.78555 | 27.09822 | 437 ft | 7 kts | 247° |
| 2026-05-04 17:55 | 36.78569 | 27.09808 | 443 ft | 0 kts | 329° |
| 2026-05-04 17:56 | 36.78570 | 27.09807 | 443 ft | 0 kts | 329° |
| 2026-05-04 17:56 | 36.78646 | 27.09749 | 437 ft | 46 kts | 328° |
| 2026-05-04 17:56 | 36.79132 | 27.09372 | 440 ft | 115 kts | 328° |
| 2026-05-04 17:56 | 36.79906 | 27.08777 | 841 ft | 129 kts | 329° |
| 2026-05-04 17:57 | 36.80661 | 27.08177 | 1536 ft | 128 kts | 327° |
| 2026-05-04 17:57 | 36.81476 | 27.07533 | 1814 ft | 151 kts | 327° |
| 2026-05-04 17:57 | 36.82431 | 27.06777 | 2066 ft | 174 kts | 328° |
| 2026-05-04 17:57 | 36.83513 | 27.05910 | 2357 ft | 196 kts | 328° |
| 2026-05-04 17:58 | 36.84747 | 27.04917 | 2722 ft | 220 kts | 328° |
| 2026-05-04 17:58 | 36.86080 | 27.03855 | 3338 ft | 233 kts | 329° |
| 2026-05-04 17:58 | 36.87446 | 27.02769 | 4132 ft | 238 kts | 329° |
| 2026-05-04 17:58 | 36.88864 | 27.01641 | 4956 ft | 244 kts | 330° |
| 2026-05-04 17:59 | 36.90310 | 27.00491 | 5777 ft | 248 kts | 329° |
| 2026-05-04 17:59 | 36.91777 | 26.99325 | 6629 ft | 251 kts | 329° |
| 2026-05-04 17:59 | 36.94767 | 26.96943 | 8245 ft | 256 kts | 328° |
| 2026-05-04 18:00 | 36.96276 | 26.95737 | 9076 ft | 259 kts | 327° |
| 2026-05-04 18:00 | 36.97780 | 26.94533 | 9880 ft | 262 kts | 327° |
| 2026-05-04 18:00 | 36.99355 | 26.93272 | 10462 ft | 274 kts | 327° |
| 2026-05-04 18:00 | 37.01025 | 26.91931 | 10681 ft | 296 kts | 327° |
| 2026-05-04 18:01 | 37.02825 | 26.90487 | 10853 ft | 319 kts | 328° |
| 2026-05-04 18:01 | 37.04727 | 26.88962 | 11331 ft | 329 kts | 328° |
| 2026-05-04 18:01 | 37.06652 | 26.87421 | 11965 ft | 334 kts | 328° |
| 2026-05-04 18:02 | 37.10608 | 26.84259 | 13317 ft | 340 kts | 329° |
| 2026-05-04 18:02 | 37.12613 | 26.82651 | 13970 ft | 343 kts | 329° |
| 2026-05-04 18:02 | 37.14632 | 26.81028 | 14570 ft | 346 kts | 329° |
| 2026-05-04 18:02 | 37.16666 | 26.79392 | 15189 ft | 348 kts | 328° |
| 2026-05-04 18:03 | 37.18711 | 26.77742 | 15809 ft | 350 kts | 328° |
| 2026-05-04 18:03 | 37.20789 | 26.76063 | 16465 ft | 351 kts | 329° |
| 2026-05-04 18:03 | 37.22849 | 26.74400 | 17111 ft | 353 kts | 329° |
| 2026-05-04 18:03 | 37.24920 | 26.72730 | 17746 ft | 355 kts | 329° |
| 2026-05-04 18:04 | 37.27005 | 26.71054 | 18358 ft | 357 kts | 329° |
| 2026-05-04 18:04 | 37.29098 | 26.69368 | 18887 ft | 359 kts | 329° |
| 2026-05-04 18:04 | 37.33344 | 26.65940 | 19860 ft | 366 kts | 329° |
| 2026-05-04 18:05 | 37.35497 | 26.64200 | 20332 ft | 369 kts | 329° |
| 2026-05-04 18:05 | 37.37665 | 26.62446 | 20796 ft | 373 kts | 329° |
| 2026-05-04 18:05 | 37.39852 | 26.60672 | 21247 ft | 376 kts | 329° |
| 2026-05-04 18:05 | 37.42059 | 26.58880 | 21684 ft | 379 kts | 329° |
| 2026-05-04 18:06 | 37.46537 | 26.55254 | 22533 ft | 386 kts | 329° |
| 2026-05-04 18:06 | 37.48802 | 26.53417 | 22952 ft | 389 kts | 329° |
| 2026-05-04 18:06 | 37.51086 | 26.51562 | 23346 ft | 392 kts | 329° |
| 2026-05-04 18:07 | 37.53385 | 26.49691 | 23723 ft | 395 kts | 329° |
| 2026-05-04 18:07 | 37.55701 | 26.47804 | 24036 ft | 398 kts | 329° |
| 2026-05-04 18:07 | 37.58036 | 26.45904 | 24362 ft | 401 kts | 329° |
| 2026-05-04 18:07 | 37.60388 | 26.43989 | 24681 ft | 403 kts | 329° |
| 2026-05-04 18:08 | 37.62751 | 26.42064 | 24987 ft | 406 kts | 329° |
| 2026-05-04 18:08 | 37.65132 | 26.40120 | 25278 ft | 409 kts | 329° |
| 2026-05-04 18:08 | 37.67524 | 26.38163 | 25582 ft | 411 kts | 329° |
| 2026-05-04 18:08 | 37.69931 | 26.36189 | 25862 ft | 414 kts | 329° |
| 2026-05-04 18:09 | 37.74794 | 26.32199 | 26421 ft | 419 kts | 329° |
| 2026-05-04 18:09 | 37.79719 | 26.28168 | 26954 ft | 424 kts | 329° |
| 2026-05-04 18:10 | 37.82203 | 26.26134 | 27218 ft | 427 kts | 329° |
| 2026-05-04 18:10 | 37.84699 | 26.24081 | 27471 ft | 429 kts | 329° |
| 2026-05-04 18:10 | 37.87205 | 26.22015 | 27716 ft | 431 kts | 329° |
| 2026-05-04 18:10 | 37.89718 | 26.19945 | 27954 ft | 433 kts | 330° |
| 2026-05-04 18:11 | 37.92261 | 26.17850 | 28188 ft | 436 kts | 329° |
| 2026-05-04 18:11 | 37.94806 | 26.15749 | 28413 ft | 438 kts | 330° |
| 2026-05-04 18:11 | 37.97363 | 26.13647 | 28626 ft | 440 kts | 330° |
| 2026-05-04 18:11 | 37.99938 | 26.11526 | 28834 ft | 442 kts | 330° |
| 2026-05-04 18:12 | 38.02514 | 26.09392 | 29050 ft | 444 kts | 329° |
| 2026-05-04 18:12 | 38.05096 | 26.07250 | 29343 ft | 443 kts | 330° |
| 2026-05-04 18:12 | 38.07678 | 26.05108 | 29626 ft | 443 kts | 330° |
| 2026-05-04 18:12 | 38.09389 | 26.03692 | 29822 ft | 443 kts | 330° |
| 2026-05-04 18:13 | 38.11972 | 26.01552 | 30107 ft | 444 kts | 330° |
| 2026-05-04 18:13 | 38.14556 | 25.99410 | 30357 ft | 444 kts | 330° |
| 2026-05-04 18:13 | 38.19729 | 25.95128 | 30853 ft | 443 kts | 329° |
| 2026-05-04 18:14 | 38.22306 | 25.92979 | 31103 ft | 443 kts | 329° |
| 2026-05-04 18:14 | 38.24880 | 25.90844 | 31366 ft | 441 kts | 332° |
| 2026-05-04 18:14 | 38.27612 | 25.88989 | 31633 ft | 439 kts | 335° |
| 2026-05-04 18:15 | 38.33018 | 25.85509 | 32164 ft | 437 kts | 335° |
| 2026-05-04 18:15 | 38.38482 | 25.81999 | 32695 ft | 436 kts | 335° |
| 2026-05-04 18:15 | 38.41194 | 25.80259 | 32950 ft | 436 kts | 335° |
| 2026-05-04 18:16 | 38.43901 | 25.78515 | 33211 ft | 436 kts | 335° |
| 2026-05-04 18:16 | 38.46603 | 25.76770 | 33469 ft | 435 kts | 335° |
| 2026-05-04 18:16 | 38.49267 | 25.75047 | 33724 ft | 435 kts | 335° |
| 2026-05-04 18:17 | 38.54655 | 25.71556 | 34219 ft | 434 kts | 335° |
| 2026-05-04 18:17 | 38.57344 | 25.69813 | 34444 ft | 433 kts | 334° |
| 2026-05-04 18:17 | 38.62741 | 25.66300 | 34903 ft | 432 kts | 334° |
| 2026-05-04 18:18 | 38.65412 | 25.64558 | 35118 ft | 431 kts | 334° |
| 2026-05-04 18:18 | 38.68081 | 25.62818 | 35333 ft | 430 kts | 334° |
| 2026-05-04 18:18 | 38.70709 | 25.61105 | 35540 ft | 429 kts | 334° |
| 2026-05-04 18:18 | 38.73401 | 25.59347 | 35742 ft | 428 kts | 334° |
| 2026-05-04 18:19 | 38.78697 | 25.55886 | 36078 ft | 427 kts | 333° |
| 2026-05-04 18:19 | 38.83970 | 25.52444 | 36102 ft | 428 kts | 333° |
| 2026-05-04 18:20 | 38.89279 | 25.48976 | 36101 ft | 428 kts | 333° |
| 2026-05-04 18:20 | 38.94615 | 25.45475 | 36099 ft | 429 kts | 333° |
| 2026-05-04 18:21 | 38.99929 | 25.41976 | 36099 ft | 429 kts | 333° |
| 2026-05-04 18:21 | 39.05237 | 25.38479 | 36102 ft | 429 kts | 333° |
| 2026-05-04 18:22 | 39.10556 | 25.34976 | 36100 ft | 429 kts | 333° |
| 2026-05-04 18:22 | 39.15876 | 25.31463 | 36101 ft | 430 kts | 333° |
| 2026-05-04 18:23 | 39.21189 | 25.27944 | 36105 ft | 430 kts | 333° |
| 2026-05-04 18:23 | 39.26503 | 25.24414 | 36103 ft | 430 kts | 333° |
| 2026-05-04 18:24 | 39.31826 | 25.20881 | 36103 ft | 430 kts | 333° |
| 2026-05-04 18:24 | 39.37147 | 25.17338 | 36103 ft | 430 kts | 333° |
| 2026-05-04 18:25 | 39.42469 | 25.13796 | 36103 ft | 430 kts | 333° |
| 2026-05-04 18:25 | 39.47790 | 25.10244 | 36099 ft | 430 kts | 333° |
| 2026-05-04 18:26 | 39.53114 | 25.06687 | 36100 ft | 431 kts | 333° |
| 2026-05-04 18:26 | 39.58438 | 25.03119 | 36096 ft | 431 kts | 333° |
| 2026-05-04 18:27 | 39.63757 | 24.99546 | 36098 ft | 431 kts | 333° |
| 2026-05-04 18:27 | 39.69077 | 24.95966 | 36095 ft | 431 kts | 333° |
| 2026-05-04 18:28 | 39.74396 | 24.92379 | 36098 ft | 431 kts | 333° |
| 2026-05-04 18:28 | 39.79725 | 24.88787 | 36093 ft | 431 kts | 333° |
| 2026-05-04 18:29 | 39.85052 | 24.85194 | 36093 ft | 431 kts | 333° |
| 2026-05-04 18:29 | 39.90378 | 24.81590 | 36092 ft | 432 kts | 333° |
| 2026-05-04 18:30 | 39.98369 | 24.76166 | 36086 ft | 432 kts | 333° |
| 2026-05-04 18:31 | 40.03694 | 24.72541 | 36087 ft | 432 kts | 333° |
| 2026-05-04 18:31 | 40.09032 | 24.68909 | 36083 ft | 432 kts | 333° |
| 2026-05-04 18:32 | 40.14346 | 24.65275 | 36080 ft | 432 kts | 333° |
| 2026-05-04 18:32 | 40.19674 | 24.61631 | 36080 ft | 432 kts | 333° |
| 2026-05-04 18:33 | 40.25004 | 24.57990 | 36080 ft | 432 kts | 333° |
| 2026-05-04 18:33 | 40.30329 | 24.54339 | 36078 ft | 432 kts | 333° |
| 2026-05-04 18:34 | 40.35654 | 24.50678 | 36076 ft | 432 kts | 333° |
| 2026-05-04 18:34 | 40.40987 | 24.47011 | 36075 ft | 433 kts | 333° |
| 2026-05-04 18:35 | 40.46316 | 24.43337 | 36074 ft | 433 kts | 333° |
| 2026-05-04 18:35 | 40.51645 | 24.39653 | 36076 ft | 433 kts | 333° |
| 2026-05-04 18:36 | 40.56970 | 24.35960 | 36072 ft | 433 kts | 333° |
| 2026-05-04 18:36 | 40.62302 | 24.32261 | 36075 ft | 433 kts | 333° |
| 2026-05-04 18:37 | 40.67635 | 24.28557 | 36073 ft | 433 kts | 333° |
| 2026-05-04 18:37 | 40.72960 | 24.24841 | 36071 ft | 434 kts | 333° |
| 2026-05-04 18:38 | 40.78300 | 24.21124 | 36071 ft | 434 kts | 332° |
| 2026-05-04 18:38 | 40.83631 | 24.17402 | 36074 ft | 434 kts | 332° |
| 2026-05-04 18:39 | 40.88966 | 24.13676 | 36075 ft | 434 kts | 332° |
| 2026-05-04 18:39 | 40.94307 | 24.09932 | 36074 ft | 434 kts | 332° |
| 2026-05-04 18:40 | 40.99638 | 24.06177 | 36077 ft | 434 kts | 332° |
| 2026-05-04 18:40 | 41.04966 | 24.02428 | 36084 ft | 434 kts | 332° |
| 2026-05-04 18:41 | 41.10298 | 23.98669 | 36087 ft | 434 kts | 332° |
| 2026-05-04 18:41 | 41.15620 | 23.94907 | 36087 ft | 434 kts | 332° |
| 2026-05-04 18:42 | 41.20947 | 23.91142 | 36093 ft | 434 kts | 332° |
| 2026-05-04 18:42 | 41.26274 | 23.87379 | 36092 ft | 434 kts | 332° |
| 2026-05-04 18:43 | 41.31634 | 23.83564 | 36093 ft | 434 kts | 332° |
| 2026-05-04 18:43 | 41.36920 | 23.79789 | 36099 ft | 434 kts | 333° |
| 2026-05-04 18:44 | 41.42594 | 23.77165 | 36107 ft | 433 kts | 350° |
| 2026-05-04 18:44 | 41.48529 | 23.75890 | 36119 ft | 433 kts | 351° |
| 2026-05-04 18:45 | 41.54511 | 23.74665 | 36124 ft | 434 kts | 351° |
| 2026-05-04 18:45 | 41.60476 | 23.73432 | 36125 ft | 434 kts | 351° |
| 2026-05-04 18:46 | 41.66477 | 23.72171 | 36125 ft | 434 kts | 351° |
| 2026-05-04 18:46 | 41.72403 | 23.70927 | 36130 ft | 434 kts | 351° |
| 2026-05-04 18:47 | 41.78406 | 23.69668 | 36136 ft | 434 kts | 351° |
| 2026-05-04 18:47 | 41.84366 | 23.68411 | 36129 ft | 434 kts | 351° |
| 2026-05-04 18:48 | 41.90328 | 23.67149 | 36137 ft | 434 kts | 351° |
| 2026-05-04 18:48 | 41.96289 | 23.65876 | 36140 ft | 434 kts | 351° |
| 2026-05-04 18:49 | 42.02257 | 23.64609 | 36141 ft | 434 kts | 351° |
| 2026-05-04 18:49 | 42.08217 | 23.63352 | 36141 ft | 433 kts | 351° |
| 2026-05-04 18:50 | 42.13169 | 23.62300 | 36147 ft | 433 kts | 351° |
| 2026-05-04 18:50 | 42.19124 | 23.61026 | 36135 ft | 434 kts | 351° |
| 2026-05-04 18:51 | 42.25083 | 23.59741 | 36129 ft | 434 kts | 351° |
| 2026-05-04 18:51 | 42.31047 | 23.58469 | 36129 ft | 434 kts | 351° |
| 2026-05-04 18:52 | 42.37021 | 23.57194 | 36132 ft | 435 kts | 351° |
| 2026-05-04 18:52 | 42.43000 | 23.55909 | 36122 ft | 435 kts | 351° |
| 2026-05-04 18:53 | 42.48983 | 23.54618 | 36119 ft | 435 kts | 351° |
| 2026-05-04 18:53 | 42.53921 | 23.53552 | 36109 ft | 435 kts | 351° |
| 2026-05-04 18:54 | 42.59834 | 23.52269 | 36102 ft | 436 kts | 351° |
| 2026-05-04 18:54 | 42.65828 | 23.50967 | 36103 ft | 436 kts | 351° |
| 2026-05-04 18:55 | 42.71822 | 23.49673 | 36102 ft | 436 kts | 351° |
| 2026-05-04 18:55 | 42.80385 | 23.47812 | 36104 ft | 437 kts | 350° |
| 2026-05-04 18:56 | 42.86390 | 23.46491 | 36114 ft | 437 kts | 350° |
| 2026-05-04 18:56 | 42.92399 | 23.45177 | 36118 ft | 438 kts | 350° |
| 2026-05-04 18:57 | 42.98412 | 23.43872 | 36124 ft | 437 kts | 350° |
| 2026-05-04 18:57 | 43.04425 | 23.42552 | 36123 ft | 437 kts | 350° |
| 2026-05-04 18:58 | 43.10430 | 23.41229 | 36128 ft | 437 kts | 350° |
| 2026-05-04 18:58 | 43.16432 | 23.39906 | 36120 ft | 437 kts | 350° |
| 2026-05-04 18:59 | 43.22440 | 23.38586 | 36113 ft | 437 kts | 350° |
| 2026-05-04 18:59 | 43.28443 | 23.37262 | 36113 ft | 437 kts | 350° |
| 2026-05-04 19:00 | 43.34445 | 23.35931 | 36110 ft | 437 kts | 350° |
| 2026-05-04 19:00 | 43.40453 | 23.34593 | 36096 ft | 437 kts | 350° |
| 2026-05-04 19:01 | 43.46457 | 23.33262 | 36094 ft | 437 kts | 350° |
| 2026-05-04 19:01 | 43.52458 | 23.31928 | 36088 ft | 437 kts | 350° |
| 2026-05-04 19:02 | 43.58453 | 23.30587 | 36086 ft | 436 kts | 350° |
| 2026-05-04 19:02 | 43.64441 | 23.29241 | 36079 ft | 436 kts | 350° |
| 2026-05-04 19:03 | 43.70464 | 23.27888 | 36079 ft | 435 kts | 350° |
| 2026-05-04 19:03 | 43.76438 | 23.26549 | 36078 ft | 435 kts | 350° |
| 2026-05-04 19:04 | 43.82401 | 23.25150 | 36076 ft | 434 kts | 346° |
| 2026-05-04 19:04 | 43.88056 | 23.22251 | 36073 ft | 434 kts | 337° |
| 2026-05-04 19:05 | 43.93610 | 23.19000 | 36062 ft | 434 kts | 337° |
| 2026-05-04 19:05 | 43.99175 | 23.15759 | 36069 ft | 433 kts | 338° |
| 2026-05-04 19:06 | 44.04740 | 23.12518 | 36057 ft | 433 kts | 338° |
| 2026-05-04 19:06 | 44.10293 | 23.09263 | 36059 ft | 433 kts | 337° |
| 2026-05-04 19:07 | 44.15848 | 23.05987 | 36061 ft | 433 kts | 338° |
| 2026-05-04 19:07 | 44.21396 | 23.02708 | 36060 ft | 433 kts | 338° |
| 2026-05-04 19:08 | 44.26946 | 22.99422 | 36060 ft | 433 kts | 338° |
| 2026-05-04 19:08 | 44.32488 | 22.96139 | 36073 ft | 433 kts | 338° |
| 2026-05-04 19:09 | 44.38040 | 22.92855 | 36066 ft | 433 kts | 338° |
| 2026-05-04 19:09 | 44.43582 | 22.89575 | 36067 ft | 433 kts | 338° |
| 2026-05-04 19:10 | 44.49120 | 22.86273 | 36068 ft | 432 kts | 338° |
| 2026-05-04 19:10 | 44.54654 | 22.82965 | 36067 ft | 432 kts | 338° |
| 2026-05-04 19:11 | 44.60184 | 22.79648 | 36069 ft | 432 kts | 338° |
| 2026-05-04 19:11 | 44.65711 | 22.76335 | 36070 ft | 432 kts | 338° |
| 2026-05-04 19:12 | 44.73999 | 22.71360 | 36073 ft | 432 kts | 338° |
| 2026-05-04 19:13 | 44.79522 | 22.68038 | 36082 ft | 432 kts | 338° |
| 2026-05-04 19:13 | 44.85049 | 22.64706 | 36088 ft | 432 kts | 338° |
| 2026-05-04 19:14 | 44.90568 | 22.61376 | 36100 ft | 432 kts | 338° |
| 2026-05-04 19:14 | 44.96087 | 22.58033 | 36107 ft | 432 kts | 338° |
| 2026-05-04 19:15 | 45.01600 | 22.54675 | 36116 ft | 432 kts | 338° |
| 2026-05-04 19:15 | 45.07114 | 22.51312 | 36125 ft | 431 kts | 338° |
| 2026-05-04 19:16 | 45.12624 | 22.47950 | 36128 ft | 431 kts | 338° |
| 2026-05-04 19:16 | 45.18132 | 22.44587 | 36127 ft | 430 kts | 338° |
| 2026-05-04 19:17 | 45.23629 | 22.41224 | 36133 ft | 430 kts | 338° |
| 2026-05-04 19:17 | 45.29123 | 22.37852 | 36130 ft | 430 kts | 338° |
| 2026-05-04 19:18 | 45.34611 | 22.34480 | 36129 ft | 430 kts | 338° |
| 2026-05-04 19:18 | 45.40094 | 22.31100 | 36131 ft | 430 kts | 338° |
| 2026-05-04 19:19 | 45.45574 | 22.27713 | 36123 ft | 429 kts | 337° |
| 2026-05-04 19:19 | 45.51053 | 22.24322 | 36121 ft | 429 kts | 337° |
| 2026-05-04 19:20 | 45.56528 | 22.20924 | 36112 ft | 429 kts | 337° |
| 2026-05-04 19:20 | 45.61999 | 22.17522 | 36106 ft | 429 kts | 337° |
| 2026-05-04 19:21 | 45.67469 | 22.14114 | 36102 ft | 429 kts | 337° |
| 2026-05-04 19:21 | 45.72980 | 22.10677 | 36097 ft | 429 kts | 337° |
| 2026-05-04 19:22 | 45.78442 | 22.07261 | 36097 ft | 429 kts | 337° |
| 2026-05-04 19:22 | 45.83906 | 22.03832 | 36096 ft | 428 kts | 337° |
| 2026-05-04 19:23 | 45.89366 | 22.00403 | 36092 ft | 428 kts | 337° |
| 2026-05-04 19:23 | 45.94825 | 21.96967 | 36093 ft | 428 kts | 337° |
| 2026-05-04 19:24 | 46.00102 | 21.93638 | 36093 ft | 428 kts | 337° |
| 2026-05-04 19:24 | 46.05558 | 21.90194 | 36092 ft | 428 kts | 337° |
| 2026-05-04 19:25 | 46.11005 | 21.86736 | 36090 ft | 428 kts | 337° |
| 2026-05-04 19:25 | 46.16451 | 21.83273 | 36089 ft | 428 kts | 337° |
| 2026-05-04 19:26 | 46.21904 | 21.79811 | 36091 ft | 428 kts | 337° |
| 2026-05-04 19:26 | 46.26430 | 21.76928 | 36093 ft | 428 kts | 337° |
| 2026-05-04 19:27 | 46.31870 | 21.73447 | 36088 ft | 428 kts | 337° |
| 2026-05-04 19:27 | 46.37311 | 21.69963 | 36083 ft | 428 kts | 337° |
| 2026-05-04 19:28 | 46.42745 | 21.66469 | 36085 ft | 428 kts | 337° |
| 2026-05-04 19:28 | 46.48182 | 21.62965 | 36082 ft | 427 kts | 337° |
| 2026-05-04 19:29 | 46.53619 | 21.59459 | 36081 ft | 427 kts | 337° |
| 2026-05-04 19:29 | 46.59057 | 21.55995 | 36082 ft | 427 kts | 338° |
| 2026-05-04 19:30 | 46.64529 | 21.52579 | 36078 ft | 427 kts | 338° |
| 2026-05-04 19:30 | 46.69992 | 21.49154 | 36078 ft | 427 kts | 338° |
| 2026-05-04 19:31 | 46.75447 | 21.45699 | 36077 ft | 428 kts | 337° |
| 2026-05-04 19:31 | 46.80901 | 21.42236 | 36073 ft | 428 kts | 338° |
| 2026-05-04 19:32 | 46.86357 | 21.38778 | 36071 ft | 428 kts | 338° |
| 2026-05-04 19:32 | 46.91821 | 21.35309 | 36069 ft | 428 kts | 337° |
| 2026-05-04 19:33 | 46.97277 | 21.31827 | 36068 ft | 428 kts | 337° |
| 2026-05-04 19:33 | 47.02738 | 21.28333 | 36069 ft | 428 kts | 337° |
| 2026-05-04 19:34 | 47.08201 | 21.24834 | 36069 ft | 428 kts | 337° |
| 2026-05-04 19:34 | 47.13697 | 21.21303 | 36065 ft | 429 kts | 337° |
| 2026-05-04 19:35 | 47.19161 | 21.17780 | 36066 ft | 429 kts | 337° |
| 2026-05-04 19:35 | 47.24630 | 21.14251 | 36064 ft | 429 kts | 337° |
| 2026-05-04 19:36 | 47.30095 | 21.10718 | 36061 ft | 429 kts | 337° |
| 2026-05-04 19:36 | 47.35569 | 21.07179 | 36061 ft | 430 kts | 337° |
| 2026-05-04 19:37 | 47.41043 | 21.03625 | 36060 ft | 430 kts | 336° |
| 2026-05-04 19:37 | 47.46520 | 21.00062 | 36056 ft | 430 kts | 336° |
| 2026-05-04 19:38 | 47.52001 | 20.96479 | 36051 ft | 431 kts | 336° |
| 2026-05-04 19:38 | 47.57457 | 20.92909 | 36051 ft | 431 kts | 336° |
| 2026-05-04 19:39 | 47.62976 | 20.89292 | 36052 ft | 431 kts | 336° |
| 2026-05-04 19:39 | 47.68467 | 20.85680 | 36050 ft | 432 kts | 336° |
| 2026-05-04 19:40 | 47.73958 | 20.82069 | 36048 ft | 432 kts | 336° |
| 2026-05-04 19:40 | 47.79460 | 20.78433 | 36050 ft | 433 kts | 336° |
| 2026-05-04 19:41 | 47.84961 | 20.74789 | 36051 ft | 433 kts | 336° |
| 2026-05-04 19:41 | 47.90473 | 20.71139 | 36051 ft | 434 kts | 336° |
| 2026-05-04 19:42 | 47.95984 | 20.67474 | 36051 ft | 434 kts | 336° |
| 2026-05-04 19:42 | 48.01501 | 20.63798 | 36054 ft | 434 kts | 336° |
| 2026-05-04 19:42 | 48.04251 | 20.61961 | 35569 ft | 433 kts | 336° |
| 2026-05-04 19:43 | 48.07004 | 20.60120 | 34780 ft | 434 kts | 336° |
| 2026-05-04 19:43 | 48.09763 | 20.58273 | 34266 ft | 434 kts | 336° |
| 2026-05-04 19:43 | 48.12518 | 20.56428 | 34073 ft | 437 kts | 336° |
| 2026-05-04 19:44 | 48.18088 | 20.52702 | 34059 ft | 439 kts | 336° |
| 2026-05-04 19:44 | 48.23660 | 20.48952 | 34058 ft | 439 kts | 335° |
| 2026-05-04 19:45 | 48.29240 | 20.45191 | 34065 ft | 440 kts | 335° |
| 2026-05-04 19:45 | 48.34819 | 20.41417 | 34058 ft | 440 kts | 335° |
| 2026-05-04 19:46 | 48.40409 | 20.37634 | 34058 ft | 440 kts | 335° |
| 2026-05-04 19:46 | 48.45998 | 20.33853 | 34056 ft | 440 kts | 335° |
| 2026-05-04 19:47 | 48.51574 | 20.30047 | 34063 ft | 440 kts | 335° |
| 2026-05-04 19:47 | 48.57160 | 20.26219 | 34062 ft | 440 kts | 335° |
| 2026-05-04 19:48 | 48.62742 | 20.22402 | 34064 ft | 441 kts | 335° |
| 2026-05-04 19:48 | 48.68327 | 20.18576 | 34064 ft | 440 kts | 334° |
| 2026-05-04 19:49 | 48.73906 | 20.14738 | 34070 ft | 440 kts | 334° |
| 2026-05-04 19:49 | 48.79481 | 20.10885 | 34073 ft | 440 kts | 334° |
| 2026-05-04 19:50 | 48.85054 | 20.07037 | 34074 ft | 440 kts | 334° |
| 2026-05-04 19:50 | 48.90633 | 20.03189 | 34084 ft | 440 kts | 334° |
| 2026-05-04 19:51 | 48.96204 | 19.99321 | 34083 ft | 440 kts | 334° |
| 2026-05-04 19:51 | 49.01771 | 19.95435 | 33956 ft | 441 kts | 334° |
| 2026-05-04 19:51 | 49.04557 | 19.93491 | 33680 ft | 440 kts | 334° |
| 2026-05-04 19:52 | 49.07337 | 19.91551 | 33405 ft | 441 kts | 334° |
| 2026-05-04 19:52 | 49.10128 | 19.89604 | 33134 ft | 441 kts | 334° |
| 2026-05-04 19:52 | 49.12922 | 19.87656 | 32866 ft | 442 kts | 334° |
| 2026-05-04 19:52 | 49.15722 | 19.85696 | 32602 ft | 443 kts | 334° |
| 2026-05-04 19:53 | 49.18522 | 19.83727 | 32339 ft | 444 kts | 334° |
| 2026-05-04 19:53 | 49.21326 | 19.81750 | 32074 ft | 444 kts | 334° |
| 2026-05-04 19:53 | 49.24128 | 19.79774 | 31809 ft | 445 kts | 334° |
| 2026-05-04 19:53 | 49.26953 | 19.77787 | 31555 ft | 446 kts | 334° |
| 2026-05-04 19:54 | 49.29769 | 19.75808 | 31309 ft | 447 kts | 334° |
| 2026-05-04 19:54 | 49.32599 | 19.73815 | 31053 ft | 448 kts | 334° |
| 2026-05-04 19:54 | 49.35430 | 19.71819 | 30798 ft | 448 kts | 334° |
| 2026-05-04 19:54 | 49.38261 | 19.69823 | 30150 ft | 445 kts | 334° |
| 2026-05-04 19:55 | 49.41054 | 19.67844 | 28826 ft | 439 kts | 334° |
| 2026-05-04 19:55 | 49.43700 | 19.65956 | 27625 ft | 433 kts | 334° |
| 2026-05-04 19:55 | 49.46412 | 19.64028 | 26446 ft | 427 kts | 335° |
| 2026-05-04 19:55 | 49.49219 | 19.62626 | 25323 ft | 423 kts | 347° |
| 2026-05-04 19:56 | 49.52112 | 19.61981 | 24251 ft | 418 kts | 354° |
| 2026-05-04 19:56 | 49.54999 | 19.61778 | 23160 ft | 414 kts | 357° |
| 2026-05-04 19:56 | 49.57866 | 19.61719 | 21981 ft | 410 kts | 358° |
| 2026-05-04 19:56 | 49.60704 | 19.61616 | 20855 ft | 406 kts | 356° |
| 2026-05-04 19:57 | 49.63515 | 19.61389 | 19781 ft | 403 kts | 354° |
| 2026-05-04 19:57 | 49.66288 | 19.61033 | 19066 ft | 399 kts | 352° |
| 2026-05-04 19:57 | 49.69036 | 19.60597 | 18602 ft | 395 kts | 352° |
| 2026-05-04 19:57 | 49.71790 | 19.60124 | 18094 ft | 392 kts | 351° |
| 2026-05-04 19:58 | 49.74449 | 19.59662 | 17603 ft | 387 kts | 351° |
| 2026-05-04 19:58 | 49.77108 | 19.59213 | 17150 ft | 383 kts | 351° |
| 2026-05-04 19:58 | 49.79743 | 19.58787 | 16677 ft | 379 kts | 352° |
| 2026-05-04 19:58 | 49.82353 | 19.58376 | 16200 ft | 376 kts | 352° |
| 2026-05-04 19:59 | 49.84984 | 19.57966 | 15711 ft | 374 kts | 352° |
| 2026-05-04 19:59 | 49.87533 | 19.57566 | 15227 ft | 372 kts | 351° |
| 2026-05-04 19:59 | 49.90139 | 19.57158 | 14726 ft | 371 kts | 351° |
| 2026-05-04 19:59 | 49.92672 | 19.56760 | 14228 ft | 370 kts | 351° |
| 2026-05-04 20:00 | 49.95271 | 19.56352 | 13682 ft | 370 kts | 351° |
| 2026-05-04 20:00 | 49.97829 | 19.55950 | 13137 ft | 369 kts | 351° |
| 2026-05-04 20:00 | 50.00375 | 19.55550 | 12604 ft | 367 kts | 351° |
| 2026-05-04 20:00 | 50.02905 | 19.55152 | 12075 ft | 365 kts | 352° |
| 2026-05-04 20:01 | 50.05422 | 19.54755 | 11522 ft | 363 kts | 352° |
| 2026-05-04 20:01 | 50.07934 | 19.54354 | 10988 ft | 361 kts | 352° |
| 2026-05-04 20:01 | 50.10410 | 19.53962 | 10723 ft | 351 kts | 352° |
| 2026-05-04 20:01 | 50.12791 | 19.53591 | 10590 ft | 337 kts | 352° |
| 2026-05-04 20:02 | 50.15082 | 19.53236 | 10472 ft | 325 kts | 352° |
| 2026-05-04 20:02 | 50.17291 | 19.52888 | 10352 ft | 313 kts | 352° |
| 2026-05-04 20:02 | 50.19430 | 19.52548 | 10137 ft | 306 kts | 352° |
| 2026-05-04 20:02 | 50.21530 | 19.52211 | 9924 ft | 302 kts | 351° |
| 2026-05-04 20:03 | 50.23614 | 19.51878 | 9800 ft | 301 kts | 352° |
| 2026-05-04 20:03 | 50.25606 | 19.51561 | 9517 ft | 303 kts | 351° |
| 2026-05-04 20:03 | 50.27087 | 19.51325 | 9182 ft | 303 kts | 351° |
| 2026-05-04 20:03 | 50.29170 | 19.50993 | 8847 ft | 299 kts | 351° |
| 2026-05-04 20:04 | 50.31223 | 19.50664 | 8207 ft | 295 kts | 351° |
| 2026-05-04 20:04 | 50.33258 | 19.50335 | 7528 ft | 293 kts | 351° |
| 2026-05-04 20:04 | 50.35276 | 19.50013 | 6861 ft | 290 kts | 351° |
| 2026-05-04 20:04 | 50.37269 | 19.49698 | 6209 ft | 287 kts | 351° |
| 2026-05-04 20:05 | 50.39246 | 19.49384 | 5547 ft | 283 kts | 351° |
| 2026-05-04 20:05 | 50.41186 | 19.49077 | 5109 ft | 273 kts | 350° |
| 2026-05-04 20:05 | 50.42990 | 19.48796 | 5043 ft | 248 kts | 350° |
| 2026-05-04 20:05 | 50.44664 | 19.48534 | 4991 ft | 240 kts | 349° |
| 2026-05-04 20:06 | 50.46218 | 19.47831 | 4926 ft | 228 kts | 320° |
| 2026-05-04 20:06 | 50.47221 | 19.46046 | 4843 ft | 215 kts | 287° |
| 2026-05-04 20:06 | 50.47451 | 19.43788 | 4755 ft | 210 kts | 268° |
| 2026-05-04 20:06 | 50.47471 | 19.41494 | 4667 ft | 210 kts | 267° |
| 2026-05-04 20:07 | 50.47480 | 19.39253 | 4552 ft | 202 kts | 267° |
| 2026-05-04 20:07 | 50.47490 | 19.37076 | 4331 ft | 198 kts | 267° |
| 2026-05-04 20:07 | 50.47500 | 19.34930 | 4083 ft | 195 kts | 267° |
| 2026-05-04 20:07 | 50.47510 | 19.32816 | 3863 ft | 191 kts | 267° |
| 2026-05-04 20:08 | 50.47520 | 19.30763 | 3584 ft | 185 kts | 266° |
| 2026-05-04 20:08 | 50.47529 | 19.28772 | 3352 ft | 179 kts | 266° |
| 2026-05-04 20:08 | 50.47537 | 19.26846 | 3123 ft | 173 kts | 266° |
| 2026-05-04 20:08 | 50.47545 | 19.24990 | 2897 ft | 167 kts | 266° |
| 2026-05-04 20:09 | 50.47553 | 19.23222 | 2680 ft | 156 kts | 266° |
| 2026-05-04 20:09 | 50.47559 | 19.21589 | 2492 ft | 144 kts | 266° |
| 2026-05-04 20:09 | 50.47565 | 19.20060 | 2323 ft | 138 kts | 266° |
| 2026-05-04 20:09 | 50.47569 | 19.18572 | 2137 ft | 136 kts | 266° |
| 2026-05-04 20:10 | 50.47574 | 19.17099 | 1955 ft | 135 kts | 266° |
| 2026-05-04 20:10 | 50.47578 | 19.15622 | 1767 ft | 136 kts | 267° |
| 2026-05-04 20:10 | 50.47583 | 19.14133 | 1578 ft | 138 kts | 267° |
| 2026-05-04 20:10 | 50.47588 | 19.12627 | 1379 ft | 139 kts | 268° |
| 2026-05-04 20:11 | 50.47592 | 19.11134 | 1184 ft | 139 kts | 268° |
| 2026-05-04 20:11 | 50.47595 | 19.09623 | 1018 ft | 138 kts | 268° |
| 2026-05-04 20:11 | 50.47591 | 19.08878 | 1000 ft | 117 kts | 268° |
| 2026-05-04 20:11 | 50.47595 | 19.07864 | 1001 ft | 67 kts | 272° |
| 2026-05-04 20:12 | 50.47600 | 19.07361 | 1001 ft | 24 kts | 269° |
| 2026-05-04 20:12 | 50.47574 | 19.07106 | 1001 ft | 24 kts | 248° |
| 2026-05-04 20:12 | 50.47512 | 19.06916 | 999 ft | 10 kts | 239° |
| 2026-05-04 20:12 | 50.47506 | 19.06900 | 1000 ft | 0 kts | 240° |
| 2026-05-04 20:13 | 50.47487 | 19.06850 | 999 ft | 13 kts | 239° |
| 2026-05-04 20:13 | 50.47437 | 19.06713 | 1000 ft | 16 kts | 240° |
| 2026-05-04 20:13 | 50.47365 | 19.06625 | 1000 ft | 13 kts | 179° |
| 2026-05-04 20:13 | 50.47265 | 19.06627 | 998 ft | 15 kts | 169° |
| 2026-05-04 20:14 | 50.47237 | 19.06756 | 998 ft | 12 kts | 92° |
| 2026-05-04 20:14 | 50.47235 | 19.06878 | 1003 ft | 11 kts | 90° |
| 2026-05-04 20:14 | 50.47235 | 19.06988 | 1001 ft | 9 kts | 90° |
| 2026-05-04 20:14 | 50.47235 | 19.07112 | 1002 ft | 16 kts | 90° |
| 2026-05-04 20:15 | 50.47235 | 19.07307 | 998 ft | 19 kts | 90° |
| 2026-05-04 20:15 | 50.47234 | 19.07520 | 998 ft | 18 kts | 90° |
| 2026-05-04 20:15 | 50.47232 | 19.07606 | 1000 ft | 5 kts | 104° |
| 2026-05-04 20:15 | 50.47205 | 19.07620 | 1002 ft | 5 kts | 180° |
| 2026-05-04 20:16 | 50.47179 | 19.07622 | 1000 ft | 0 kts | 180° |